Pagrindinis puslapis
METAR-TAF:

METAR-TAF

Oro uostai :

Neukenas, Argentina

platuma: 38-57S, ilguma: 068-08W, Aukštis: 270 m

Dabartinis oras

Ataskaita buvo paskelbta 21 minutes, ne 22:00 UTC
Vėjas 7 kt iš Vakarų/Pietvakarių
Temperatūra 24°C
Drėgmė 16%
Slėgis 1013 hPa
Matomumas 10 km arba daugiau
nėra debesų žemiau 1500 m ir nėra kamuolinių lietaus debesų

METAR: SAZN 122200Z 25007KT CAVOK 24/M03 Q1013

Laikas: 19:21 (22:21 UTC)

Prognozė

Ataskaita buvo paskelbta 5 valandos ir 21 minutes, ne 17:00 UTC
Prognozė galioja nuo 12 metu 18 UTC su 13 metu 18 UTC
Vėjas 10 kt iš Vakarų
Matomumas 10 km arba daugiau
nėra debesų žemiau 1500 m ir nėra kamuolinių lietaus debesų
Tapsmas
nuo 12 metu 20 UTC su 12 metu 22 UTC
Vėjas 5 kt nuo kintamojo kryptimis
Tapsmas
nuo 13 metu 12 UTC su 13 metu 14 UTC
Vėjas 20 kt iš Vakarų/Pietvakarių

TAF: SAZN 121700Z 1218/1318 27010KT CAVOK TX24/1318Z TN14/1310Z BECMG 1220/1222 VRB05KT BECMG 1312/1314 25020KT

Orai ataskaitas ir orų prognozės (METAR, TAF).

turimą stotys yra geltonos ir raudonos taškus žemėlapyje.

Perkelti pele per norėdami pamatyti stoties vardą.

Tada spustelėkite, norėdami matyti oro stebėjimo ir prognozės.

Norėdami pakeisti žemėlapį: spustelėkite ant žalios mygtukų su juodo kryžiaus žemyn,; žalią mygtuką su brūkšneliu, jei norite nutolinti; arba žalių rodyklių gretimoms žemėlapius.


METAR-TAF: